sensor_id;sensor_type;location;lat;lon;timestamp;P1;durP1;ratioP1;P2;durP2;ratioP2
13855;SDS011;6998;53.608;9.958;2022-08-19T00:01:15;15.45;;;13.98;;
13855;SDS011;6998;53.608;9.958;2022-08-19T00:03:42;18.45;;;15.25;;
13855;SDS011;6998;53.608;9.958;2022-08-19T00:06:08;20.13;;;16.98;;
13855;SDS011;6998;53.608;9.958;2022-08-19T00:08:35;16.10;;;14.57;;
13855;SDS011;6998;53.608;9.958;2022-08-19T00:11:03;17.65;;;15.90;;
13855;SDS011;6998;53.608;9.958;2022-08-19T00:13:31;19.98;;;16.55;;
13855;SDS011;6998;53.608;9.958;2022-08-19T00:15:58;19.00;;;17.00;;
13855;SDS011;6998;53.608;9.958;2022-08-19T00:18:25;19.10;;;16.90;;
13855;SDS011;6998;53.608;9.958;2022-08-19T00:20:52;20.15;;;17.40;;
13855;SDS011;6998;53.608;9.958;2022-08-19T00:23:19;22.25;;;18.80;;
13855;SDS011;6998;53.608;9.958;2022-08-19T00:25:46;20.05;;;17.88;;
13855;SDS011;6998;53.608;9.958;2022-08-19T00:28:13;17.67;;;15.68;;
13855;SDS011;6998;53.608;9.958;2022-08-19T00:30:41;16.20;;;14.70;;
13855;SDS011;6998;53.608;9.958;2022-08-19T00:33:08;19.65;;;17.27;;
13855;SDS011;6998;53.608;9.958;2022-08-19T00:35:34;18.25;;;15.77;;
13855;SDS011;6998;53.608;9.958;2022-08-19T00:38:03;18.50;;;16.65;;
13855;SDS011;6998;53.608;9.958;2022-08-19T00:40:31;17.33;;;15.18;;
13855;SDS011;6998;53.608;9.958;2022-08-19T00:42:58;18.33;;;16.40;;
13855;SDS011;6998;53.608;9.958;2022-08-19T00:45:26;21.27;;;17.15;;
13855;SDS011;6998;53.608;9.958;2022-08-19T00:47:57;18.58;;;16.00;;
13855;SDS011;6998;53.608;9.958;2022-08-19T00:50:28;19.42;;;17.42;;
13855;SDS011;6998;53.608;9.958;2022-08-19T00:52:56;19.70;;;17.60;;
13855;SDS011;6998;53.608;9.958;2022-08-19T00:55:23;21.83;;;19.63;;
13855;SDS011;6998;53.608;9.958;2022-08-19T00:57:55;20.50;;;18.30;;
13855;SDS011;6998;53.608;9.958;2022-08-19T01:00:26;24.33;;;19.35;;
13855;SDS011;6998;53.608;9.958;2022-08-19T01:02:54;22.05;;;18.45;;
13855;SDS011;6998;53.608;9.958;2022-08-19T01:05:23;21.95;;;17.80;;
13855;SDS011;6998;53.608;9.958;2022-08-19T01:07:53;19.02;;;16.05;;
13855;SDS011;6998;53.608;9.958;2022-08-19T01:10:23;20.00;;;16.65;;
13855;SDS011;6998;53.608;9.958;2022-08-19T01:12:52;19.38;;;17.35;;
13855;SDS011;6998;53.608;9.958;2022-08-19T01:15:23;19.25;;;16.35;;
13855;SDS011;6998;53.608;9.958;2022-08-19T01:17:52;23.20;;;16.33;;
13855;SDS011;6998;53.608;9.958;2022-08-19T01:20:21;19.80;;;16.13;;
13855;SDS011;6998;53.608;9.958;2022-08-19T01:22:52;19.95;;;17.23;;
13855;SDS011;6998;53.608;9.958;2022-08-19T01:25:21;21.38;;;18.63;;
13855;SDS011;6998;53.608;9.958;2022-08-19T01:27:52;19.23;;;17.23;;
13855;SDS011;6998;53.608;9.958;2022-08-19T01:30:21;22.63;;;18.90;;
13855;SDS011;6998;53.608;9.958;2022-08-19T01:32:50;23.83;;;19.33;;
13855;SDS011;6998;53.608;9.958;2022-08-19T01:35:18;20.33;;;17.23;;
13855;SDS011;6998;53.608;9.958;2022-08-19T01:37:49;24.48;;;19.05;;
13855;SDS011;6998;53.608;9.958;2022-08-19T01:40:20;21.98;;;18.88;;
13855;SDS011;6998;53.608;9.958;2022-08-19T01:42:48;22.33;;;18.90;;
13855;SDS011;6998;53.608;9.958;2022-08-19T01:45:15;23.02;;;19.23;;
13855;SDS011;6998;53.608;9.958;2022-08-19T01:47:43;21.25;;;18.95;;
13855;SDS011;6998;53.608;9.958;2022-08-19T01:50:10;20.80;;;18.02;;
13855;SDS011;6998;53.608;9.958;2022-08-19T01:52:38;21.60;;;17.98;;
13855;SDS011;6998;53.608;9.958;2022-08-19T01:55:11;20.17;;;18.02;;
13855;SDS011;6998;53.608;9.958;2022-08-19T01:57:40;22.00;;;19.58;;
13855;SDS011;6998;53.608;9.958;2022-08-19T02:00:13;24.40;;;18.73;;
13855;SDS011;6998;53.608;9.958;2022-08-19T02:02:42;26.35;;;20.48;;
13855;SDS011;6998;53.608;9.958;2022-08-19T02:05:09;25.95;;;19.05;;
13855;SDS011;6998;53.608;9.958;2022-08-19T02:07:36;21.80;;;18.52;;
13855;SDS011;6998;53.608;9.958;2022-08-19T02:10:04;25.50;;;19.80;;
13855;SDS011;6998;53.608;9.958;2022-08-19T02:12:34;24.55;;;18.63;;
13855;SDS011;6998;53.608;9.958;2022-08-19T02:15:01;29.27;;;19.20;;
13855;SDS011;6998;53.608;9.958;2022-08-19T02:17:29;27.52;;;20.83;;
13855;SDS011;6998;53.608;9.958;2022-08-19T02:19:56;28.45;;;20.25;;
13855;SDS011;6998;53.608;9.958;2022-08-19T02:22:23;29.30;;;21.15;;
13855;SDS011;6998;53.608;9.958;2022-08-19T02:24:51;30.95;;;21.67;;
13855;SDS011;6998;53.608;9.958;2022-08-19T02:27:18;29.25;;;21.15;;
13855;SDS011;6998;53.608;9.958;2022-08-19T02:29:46;27.70;;;20.23;;
13855;SDS011;6998;53.608;9.958;2022-08-19T02:32:15;29.58;;;20.50;;
13855;SDS011;6998;53.608;9.958;2022-08-19T02:34:43;30.88;;;22.05;;
13855;SDS011;6998;53.608;9.958;2022-08-19T02:37:10;31.25;;;22.65;;
13855;SDS011;6998;53.608;9.958;2022-08-19T02:39:57;31.08;;;22.33;;
13855;SDS011;6998;53.608;9.958;2022-08-19T02:42:24;28.55;;;20.10;;
13855;SDS011;6998;53.608;9.958;2022-08-19T02:44:52;28.73;;;21.38;;
13855;SDS011;6998;53.608;9.958;2022-08-19T02:47:21;29.83;;;20.58;;
13855;SDS011;6998;53.608;9.958;2022-08-19T02:49:48;32.92;;;22.00;;
13855;SDS011;6998;53.608;9.958;2022-08-19T02:52:15;32.78;;;20.60;;
13855;SDS011;6998;53.608;9.958;2022-08-19T02:54:41;33.40;;;22.75;;
13855;SDS011;6998;53.608;9.958;2022-08-19T02:57:08;33.10;;;22.65;;
13855;SDS011;6998;53.608;9.958;2022-08-19T02:59:35;30.60;;;20.85;;
13855;SDS011;6998;53.608;9.958;2022-08-19T03:02:03;31.23;;;20.73;;
13855;SDS011;6998;53.608;9.958;2022-08-19T03:04:30;33.33;;;21.65;;
13855;SDS011;6998;53.608;9.958;2022-08-19T03:06:57;30.88;;;23.00;;
13855;SDS011;6998;53.608;9.958;2022-08-19T03:09:23;35.78;;;22.08;;
13855;SDS011;6998;53.608;9.958;2022-08-19T03:11:50;34.45;;;22.65;;
13855;SDS011;6998;53.608;9.958;2022-08-19T03:14:17;31.58;;;20.25;;
13855;SDS011;6998;53.608;9.958;2022-08-19T03:16:44;37.15;;;23.20;;
13855;SDS011;6998;53.608;9.958;2022-08-19T03:19:15;40.50;;;23.45;;
13855;SDS011;6998;53.608;9.958;2022-08-19T03:21:43;36.33;;;20.95;;
13855;SDS011;6998;53.608;9.958;2022-08-19T03:24:10;29.38;;;20.52;;
13855;SDS011;6998;53.608;9.958;2022-08-19T03:26:38;30.70;;;21.15;;
13855;SDS011;6998;53.608;9.958;2022-08-19T03:29:06;30.48;;;20.83;;
13855;SDS011;6998;53.608;9.958;2022-08-19T03:31:34;34.95;;;21.95;;
13855;SDS011;6998;53.608;9.958;2022-08-19T03:34:00;31.27;;;20.65;;
13855;SDS011;6998;53.608;9.958;2022-08-19T03:36:29;27.85;;;19.48;;
13855;SDS011;6998;53.608;9.958;2022-08-19T03:38:56;29.55;;;20.30;;
13855;SDS011;6998;53.608;9.958;2022-08-19T03:41:24;29.13;;;19.13;;
13855;SDS011;6998;53.608;9.958;2022-08-19T03:43:53;30.42;;;19.77;;
13855;SDS011;6998;53.608;9.958;2022-08-19T03:46:21;27.85;;;19.92;;
13855;SDS011;6998;53.608;9.958;2022-08-19T03:48:51;27.70;;;19.50;;
13855;SDS011;6998;53.608;9.958;2022-08-19T03:51:20;27.80;;;17.83;;
13855;SDS011;6998;53.608;9.958;2022-08-19T03:53:53;30.20;;;19.90;;
13855;SDS011;6998;53.608;9.958;2022-08-19T03:56:20;31.55;;;19.27;;
13855;SDS011;6998;53.608;9.958;2022-08-19T03:58:47;25.42;;;20.13;;
13855;SDS011;6998;53.608;9.958;2022-08-19T04:01:16;29.00;;;19.70;;
13855;SDS011;6998;53.608;9.958;2022-08-19T04:03:45;30.42;;;20.50;;
13855;SDS011;6998;53.608;9.958;2022-08-19T04:06:13;23.60;;;17.95;;
13855;SDS011;6998;53.608;9.958;2022-08-19T04:08:42;29.75;;;19.33;;
13855;SDS011;6998;53.608;9.958;2022-08-19T04:11:13;25.52;;;18.33;;
13855;SDS011;6998;53.608;9.958;2022-08-19T04:13:41;36.40;;;21.90;;
13855;SDS011;6998;53.608;9.958;2022-08-19T04:16:08;29.95;;;19.63;;
13855;SDS011;6998;53.608;9.958;2022-08-19T04:18:35;35.55;;;22.40;;
13855;SDS011;6998;53.608;9.958;2022-08-19T04:21:03;33.78;;;20.75;;
13855;SDS011;6998;53.608;9.958;2022-08-19T04:23:31;31.65;;;21.38;;
13855;SDS011;6998;53.608;9.958;2022-08-19T04:25:58;26.20;;;19.65;;
13855;SDS011;6998;53.608;9.958;2022-08-19T04:28:26;35.67;;;22.67;;
13855;SDS011;6998;53.608;9.958;2022-08-19T04:30:54;38.78;;;23.83;;
13855;SDS011;6998;53.608;9.958;2022-08-19T04:33:23;36.20;;;22.17;;
13855;SDS011;6998;53.608;9.958;2022-08-19T04:35:51;34.28;;;21.77;;
13855;SDS011;6998;53.608;9.958;2022-08-19T04:38:19;32.78;;;22.45;;
13855;SDS011;6998;53.608;9.958;2022-08-19T04:40:49;35.85;;;24.48;;
13855;SDS011;6998;53.608;9.958;2022-08-19T04:43:36;51.10;;;29.95;;
13855;SDS011;6998;53.608;9.958;2022-08-19T04:46:04;45.58;;;29.30;;
13855;SDS011;6998;53.608;9.958;2022-08-19T04:48:33;45.05;;;28.98;;
13855;SDS011;6998;53.608;9.958;2022-08-19T04:51:01;51.42;;;32.17;;
13855;SDS011;6998;53.608;9.958;2022-08-19T04:53:33;48.15;;;30.75;;
13855;SDS011;6998;53.608;9.958;2022-08-19T04:56:04;43.97;;;29.83;;
13855;SDS011;6998;53.608;9.958;2022-08-19T04:58:32;50.40;;;31.02;;
13855;SDS011;6998;53.608;9.958;2022-08-19T05:01:01;48.50;;;30.15;;
13855;SDS011;6998;53.608;9.958;2022-08-19T05:03:28;46.75;;;29.25;;
13855;SDS011;6998;53.608;9.958;2022-08-19T05:05:58;42.85;;;27.77;;
13855;SDS011;6998;53.608;9.958;2022-08-19T05:08:29;36.67;;;26.40;;
13855;SDS011;6998;53.608;9.958;2022-08-19T05:10:56;42.03;;;28.05;;
13855;SDS011;6998;53.608;9.958;2022-08-19T05:13:23;45.97;;;28.42;;
13855;SDS011;6998;53.608;9.958;2022-08-19T05:15:53;39.05;;;27.23;;
13855;SDS011;6998;53.608;9.958;2022-08-19T05:18:22;38.47;;;27.00;;
13855;SDS011;6998;53.608;9.958;2022-08-19T05:21:06;38.13;;;25.20;;
13855;SDS011;6998;53.608;9.958;2022-08-19T05:23:51;41.65;;;27.25;;
13855;SDS011;6998;53.608;9.958;2022-08-19T05:26:18;44.15;;;26.45;;
13855;SDS011;6998;53.608;9.958;2022-08-19T05:28:45;36.65;;;26.33;;
13855;SDS011;6998;53.608;9.958;2022-08-19T05:31:12;39.83;;;27.48;;
13855;SDS011;6998;53.608;9.958;2022-08-19T05:33:40;43.53;;;29.10;;
13855;SDS011;6998;53.608;9.958;2022-08-19T05:36:07;42.30;;;29.40;;
13855;SDS011;6998;53.608;9.958;2022-08-19T05:38:34;43.75;;;28.83;;
13855;SDS011;6998;53.608;9.958;2022-08-19T05:41:05;46.33;;;29.98;;
13855;SDS011;6998;53.608;9.958;2022-08-19T05:43:33;48.38;;;33.78;;
13855;SDS011;6998;53.608;9.958;2022-08-19T05:46:00;49.33;;;33.67;;
13855;SDS011;6998;53.608;9.958;2022-08-19T05:48:27;46.22;;;32.22;;
13855;SDS011;6998;53.608;9.958;2022-08-19T05:50:55;48.70;;;34.10;;
13855;SDS011;6998;53.608;9.958;2022-08-19T05:53:38;50.30;;;35.47;;
13855;SDS011;6998;53.608;9.958;2022-08-19T05:56:05;50.35;;;34.30;;
13855;SDS011;6998;53.608;9.958;2022-08-19T05:58:39;46.30;;;33.75;;
13855;SDS011;6998;53.608;9.958;2022-08-19T06:01:09;48.47;;;35.03;;
13855;SDS011;6998;53.608;9.958;2022-08-19T06:03:37;44.50;;;32.88;;
13855;SDS011;6998;53.608;9.958;2022-08-19T06:06:06;39.20;;;32.97;;
13855;SDS011;6998;53.608;9.958;2022-08-19T06:08:36;43.15;;;32.78;;
13855;SDS011;6998;53.608;9.958;2022-08-19T06:11:16;44.80;;;33.72;;
13855;SDS011;6998;53.608;9.958;2022-08-19T06:13:45;44.88;;;33.42;;
13855;SDS011;6998;53.608;9.958;2022-08-19T06:16:16;40.85;;;32.40;;
13855;SDS011;6998;53.608;9.958;2022-08-19T06:18:47;43.25;;;34.10;;
13855;SDS011;6998;53.608;9.958;2022-08-19T06:21:17;44.20;;;32.28;;
13855;SDS011;6998;53.608;9.958;2022-08-19T06:23:45;44.40;;;33.13;;
13855;SDS011;6998;53.608;9.958;2022-08-19T06:26:12;45.88;;;33.88;;
13855;SDS011;6998;53.608;9.958;2022-08-19T06:28:39;42.22;;;32.92;;
13855;SDS011;6998;53.608;9.958;2022-08-19T06:31:07;44.85;;;32.97;;
13855;SDS011;6998;53.608;9.958;2022-08-19T06:33:34;44.75;;;33.08;;
13855;SDS011;6998;53.608;9.958;2022-08-19T06:36:02;45.50;;;34.55;;
13855;SDS011;6998;53.608;9.958;2022-08-19T06:38:30;40.75;;;32.60;;
13855;SDS011;6998;53.608;9.958;2022-08-19T06:41:00;46.50;;;33.63;;
13855;SDS011;6998;53.608;9.958;2022-08-19T06:43:27;39.72;;;31.08;;
13855;SDS011;6998;53.608;9.958;2022-08-19T06:45:54;43.03;;;30.83;;
13855;SDS011;6998;53.608;9.958;2022-08-19T06:48:20;40.10;;;29.73;;
13855;SDS011;6998;53.608;9.958;2022-08-19T06:50:47;39.40;;;29.77;;
13855;SDS011;6998;53.608;9.958;2022-08-19T06:53:18;43.40;;;29.90;;
13855;SDS011;6998;53.608;9.958;2022-08-19T06:55:46;40.67;;;29.40;;
13855;SDS011;6998;53.608;9.958;2022-08-19T06:58:20;38.75;;;28.95;;
13855;SDS011;6998;53.608;9.958;2022-08-19T07:00:47;38.90;;;28.13;;
13855;SDS011;6998;53.608;9.958;2022-08-19T07:03:15;38.97;;;28.42;;
13855;SDS011;6998;53.608;9.958;2022-08-19T07:05:42;34.10;;;26.05;;
13855;SDS011;6998;53.608;9.958;2022-08-19T07:08:09;29.42;;;22.17;;
13855;SDS011;6998;53.608;9.958;2022-08-19T07:10:36;28.42;;;20.42;;
13855;SDS011;6998;53.608;9.958;2022-08-19T07:13:04;23.45;;;18.38;;
13855;SDS011;6998;53.608;9.958;2022-08-19T07:15:33;20.65;;;17.52;;
13855;SDS011;6998;53.608;9.958;2022-08-19T07:18:01;21.58;;;15.10;;
13855;SDS011;6998;53.608;9.958;2022-08-19T07:20:28;17.25;;;15.10;;
13855;SDS011;6998;53.608;9.958;2022-08-19T07:22:55;20.48;;;16.17;;
13855;SDS011;6998;53.608;9.958;2022-08-19T07:25:22;18.83;;;15.70;;
13855;SDS011;6998;53.608;9.958;2022-08-19T07:27:48;19.30;;;15.00;;
13855;SDS011;6998;53.608;9.958;2022-08-19T07:30:16;18.77;;;13.30;;
13855;SDS011;6998;53.608;9.958;2022-08-19T07:32:43;17.00;;;13.55;;
13855;SDS011;6998;53.608;9.958;2022-08-19T07:35:10;15.23;;;13.40;;
13855;SDS011;6998;53.608;9.958;2022-08-19T07:37:37;13.23;;;11.90;;
13855;SDS011;6998;53.608;9.958;2022-08-19T07:40:09;17.80;;;12.63;;
13855;SDS011;6998;53.608;9.958;2022-08-19T07:42:36;15.25;;;12.60;;
13855;SDS011;6998;53.608;9.958;2022-08-19T07:45:03;14.68;;;12.20;;
13855;SDS011;6998;53.608;9.958;2022-08-19T07:47:32;17.20;;;13.82;;
13855;SDS011;6998;53.608;9.958;2022-08-19T07:49:59;12.48;;;11.18;;
13855;SDS011;6998;53.608;9.958;2022-08-19T07:52:26;11.15;;;10.05;;
13855;SDS011;6998;53.608;9.958;2022-08-19T07:54:53;11.90;;;9.70;;
13855;SDS011;6998;53.608;9.958;2022-08-19T07:57:19;10.85;;;8.38;;
13855;SDS011;6998;53.608;9.958;2022-08-19T07:59:46;9.57;;;8.57;;
13855;SDS011;6998;53.608;9.958;2022-08-19T08:02:13;10.40;;;8.10;;
13855;SDS011;6998;53.608;9.958;2022-08-19T08:04:41;9.05;;;7.82;;
13855;SDS011;6998;53.608;9.958;2022-08-19T08:07:25;9.43;;;7.72;;
13855;SDS011;6998;53.608;9.958;2022-08-19T08:10:09;9.65;;;8.65;;
13855;SDS011;6998;53.608;9.958;2022-08-19T08:12:39;12.68;;;9.27;;
13855;SDS011;6998;53.608;9.958;2022-08-19T08:15:08;10.10;;;8.65;;
13855;SDS011;6998;53.608;9.958;2022-08-19T08:17:37;11.68;;;10.07;;
13855;SDS011;6998;53.608;9.958;2022-08-19T08:20:06;12.88;;;9.80;;
13855;SDS011;6998;53.608;9.958;2022-08-19T08:22:33;9.57;;;7.95;;
13855;SDS011;6998;53.608;9.958;2022-08-19T08:25:18;9.38;;;8.40;;
13855;SDS011;6998;53.608;9.958;2022-08-19T08:27:47;9.35;;;8.32;;
13855;SDS011;6998;53.608;9.958;2022-08-19T08:30:16;12.25;;;9.05;;
13855;SDS011;6998;53.608;9.958;2022-08-19T08:32:45;12.18;;;8.52;;
13855;SDS011;6998;53.608;9.958;2022-08-19T08:35:14;12.93;;;9.18;;
13855;SDS011;6998;53.608;9.958;2022-08-19T08:37:42;10.50;;;8.60;;
13855;SDS011;6998;53.608;9.958;2022-08-19T08:40:11;11.25;;;10.10;;
13855;SDS011;6998;53.608;9.958;2022-08-19T08:42:46;10.40;;;9.40;;
13855;SDS011;6998;53.608;9.958;2022-08-19T08:45:19;11.45;;;10.25;;
13855;SDS011;6998;53.608;9.958;2022-08-19T08:47:48;15.48;;;10.98;;
13855;SDS011;6998;53.608;9.958;2022-08-19T08:50:19;13.63;;;10.88;;
13855;SDS011;6998;53.608;9.958;2022-08-19T08:52:52;19.52;;;12.55;;
13855;SDS011;6998;53.608;9.958;2022-08-19T08:55:23;12.35;;;11.10;;
13855;SDS011;6998;53.608;9.958;2022-08-19T08:57:52;13.55;;;12.00;;
13855;SDS011;6998;53.608;9.958;2022-08-19T09:00:24;14.48;;;12.60;;
13855;SDS011;6998;53.608;9.958;2022-08-19T09:03:09;15.65;;;11.98;;
13855;SDS011;6998;53.608;9.958;2022-08-19T09:05:45;15.35;;;12.52;;
13855;SDS011;6998;53.608;9.958;2022-08-19T09:08:24;15.07;;;12.15;;
13855;SDS011;6998;53.608;9.958;2022-08-19T09:10:59;13.38;;;11.88;;
13855;SDS011;6998;53.608;9.958;2022-08-19T09:13:31;17.38;;;11.48;;
13855;SDS011;6998;53.608;9.958;2022-08-19T09:16:05;12.80;;;10.70;;
13855;SDS011;6998;53.608;9.958;2022-08-19T09:18:40;14.80;;;11.65;;
13855;SDS011;6998;53.608;9.958;2022-08-19T09:21:10;13.35;;;11.35;;
13855;SDS011;6998;53.608;9.958;2022-08-19T09:23:37;11.52;;;9.98;;
13855;SDS011;6998;53.608;9.958;2022-08-19T09:26:06;14.52;;;11.45;;
13855;SDS011;6998;53.608;9.958;2022-08-19T09:28:34;14.77;;;11.63;;
13855;SDS011;6998;53.608;9.958;2022-08-19T09:31:01;12.65;;;11.32;;
13855;SDS011;6998;53.608;9.958;2022-08-19T09:33:28;14.30;;;11.00;;
13855;SDS011;6998;53.608;9.958;2022-08-19T09:36:01;13.40;;;10.98;;
13855;SDS011;6998;53.608;9.958;2022-08-19T09:38:31;14.77;;;10.73;;
13855;SDS011;6998;53.608;9.958;2022-08-19T09:41:01;13.88;;;10.90;;
13855;SDS011;6998;53.608;9.958;2022-08-19T09:43:29;13.48;;;11.10;;
13855;SDS011;6998;53.608;9.958;2022-08-19T09:45:56;11.73;;;10.50;;
13855;SDS011;6998;53.608;9.958;2022-08-19T09:48:23;12.55;;;10.98;;
13855;SDS011;6998;53.608;9.958;2022-08-19T09:50:50;18.38;;;12.30;;
13855;SDS011;6998;53.608;9.958;2022-08-19T09:53:17;14.77;;;12.25;;
13855;SDS011;6998;53.608;9.958;2022-08-19T09:55:45;13.55;;;11.90;;
13855;SDS011;6998;53.608;9.958;2022-08-19T09:58:12;16.27;;;12.52;;
13855;SDS011;6998;53.608;9.958;2022-08-19T10:00:38;15.63;;;12.70;;
13855;SDS011;6998;53.608;9.958;2022-08-19T10:03:05;15.57;;;11.82;;
13855;SDS011;6998;53.608;9.958;2022-08-19T10:05:32;17.63;;;12.65;;
13855;SDS011;6998;53.608;9.958;2022-08-19T10:08:15;11.52;;;10.25;;
13855;SDS011;6998;53.608;9.958;2022-08-19T10:10:43;14.70;;;11.68;;
13855;SDS011;6998;53.608;9.958;2022-08-19T10:13:12;14.55;;;12.85;;
13855;SDS011;6998;53.608;9.958;2022-08-19T10:15:40;16.55;;;12.77;;
13855;SDS011;6998;53.608;9.958;2022-08-19T10:18:07;15.43;;;13.82;;
13855;SDS011;6998;53.608;9.958;2022-08-19T10:20:33;18.42;;;13.82;;
13855;SDS011;6998;53.608;9.958;2022-08-19T10:23:14;19.02;;;14.25;;
13855;SDS011;6998;53.608;9.958;2022-08-19T10:25:42;17.80;;;15.07;;
13855;SDS011;6998;53.608;9.958;2022-08-19T10:28:09;18.45;;;15.13;;
13855;SDS011;6998;53.608;9.958;2022-08-19T10:30:37;15.23;;;13.73;;
13855;SDS011;6998;53.608;9.958;2022-08-19T10:33:04;16.05;;;14.15;;
13855;SDS011;6998;53.608;9.958;2022-08-19T10:35:31;19.95;;;16.90;;
13855;SDS011;6998;53.608;9.958;2022-08-19T10:37:59;18.25;;;14.63;;
13855;SDS011;6998;53.608;9.958;2022-08-19T10:40:28;18.65;;;14.48;;
13855;SDS011;6998;53.608;9.958;2022-08-19T10:42:55;18.35;;;15.65;;
13855;SDS011;6998;53.608;9.958;2022-08-19T10:45:22;20.02;;;17.17;;
13855;SDS011;6998;53.608;9.958;2022-08-19T10:47:51;19.20;;;16.50;;
13855;SDS011;6998;53.608;9.958;2022-08-19T10:50:18;21.05;;;17.05;;
13855;SDS011;6998;53.608;9.958;2022-08-19T10:53:03;18.98;;;16.48;;
13855;SDS011;6998;53.608;9.958;2022-08-19T10:55:34;21.38;;;16.88;;
13855;SDS011;6998;53.608;9.958;2022-08-19T10:58:20;21.58;;;18.00;;
13855;SDS011;6998;53.608;9.958;2022-08-19T11:00:51;19.20;;;15.43;;
13855;SDS011;6998;53.608;9.958;2022-08-19T11:03:19;20.67;;;16.50;;
13855;SDS011;6998;53.608;9.958;2022-08-19T11:05:46;20.08;;;15.30;;
13855;SDS011;6998;53.608;9.958;2022-08-19T11:08:13;20.58;;;15.00;;
13855;SDS011;6998;53.608;9.958;2022-08-19T11:10:42;18.40;;;14.75;;
13855;SDS011;6998;53.608;9.958;2022-08-19T11:13:09;17.33;;;13.88;;
13855;SDS011;6998;53.608;9.958;2022-08-19T11:15:35;16.02;;;14.02;;
13855;SDS011;6998;53.608;9.958;2022-08-19T11:18:03;19.65;;;16.08;;
13855;SDS011;6998;53.608;9.958;2022-08-19T11:20:30;15.38;;;13.77;;
13855;SDS011;6998;53.608;9.958;2022-08-19T11:22:57;16.58;;;12.15;;
13855;SDS011;6998;53.608;9.958;2022-08-19T11:25:24;13.63;;;12.23;;
13855;SDS011;6998;53.608;9.958;2022-08-19T11:27:52;16.35;;;12.63;;
13855;SDS011;6998;53.608;9.958;2022-08-19T11:30:19;13.75;;;12.40;;
13855;SDS011;6998;53.608;9.958;2022-08-19T11:32:46;12.32;;;11.13;;
13855;SDS011;6998;53.608;9.958;2022-08-19T11:35:12;11.52;;;9.93;;
13855;SDS011;6998;53.608;9.958;2022-08-19T11:37:39;12.23;;;10.65;;
13855;SDS011;6998;53.608;9.958;2022-08-19T11:40:06;12.13;;;10.50;;
13855;SDS011;6998;53.608;9.958;2022-08-19T11:42:34;11.02;;;9.82;;
13855;SDS011;6998;53.608;9.958;2022-08-19T11:45:20;13.07;;;11.70;;
13855;SDS011;6998;53.608;9.958;2022-08-19T11:47:47;10.93;;;9.93;;
13855;SDS011;6998;53.608;9.958;2022-08-19T11:50:14;11.90;;;10.80;;
13855;SDS011;6998;53.608;9.958;2022-08-19T11:52:41;13.95;;;11.32;;
13855;SDS011;6998;53.608;9.958;2022-08-19T11:55:10;13.48;;;11.40;;
13855;SDS011;6998;53.608;9.958;2022-08-19T11:57:36;12.10;;;10.63;;
13855;SDS011;6998;53.608;9.958;2022-08-19T12:00:04;13.45;;;11.70;;
13855;SDS011;6998;53.608;9.958;2022-08-19T12:02:33;12.57;;;11.38;;
13855;SDS011;6998;53.608;9.958;2022-08-19T12:05:00;13.32;;;11.05;;
13855;SDS011;6998;53.608;9.958;2022-08-19T12:07:28;11.43;;;10.00;;
13855;SDS011;6998;53.608;9.958;2022-08-19T12:09:58;10.80;;;9.70;;
13855;SDS011;6998;53.608;9.958;2022-08-19T12:12:24;11.50;;;10.13;;
13855;SDS011;6998;53.608;9.958;2022-08-19T12:14:51;11.30;;;10.07;;
13855;SDS011;6998;53.608;9.958;2022-08-19T12:17:21;10.52;;;9.50;;
13855;SDS011;6998;53.608;9.958;2022-08-19T12:19:49;11.27;;;9.93;;
13855;SDS011;6998;53.608;9.958;2022-08-19T12:22:16;10.68;;;9.57;;
13855;SDS011;6998;53.608;9.958;2022-08-19T12:24:43;11.55;;;8.60;;
13855;SDS011;6998;53.608;9.958;2022-08-19T12:27:10;10.63;;;9.52;;
13855;SDS011;6998;53.608;9.958;2022-08-19T12:29:36;9.60;;;8.70;;
13855;SDS011;6998;53.608;9.958;2022-08-19T12:32:03;10.15;;;9.25;;
13855;SDS011;6998;53.608;9.958;2022-08-19T12:34:30;10.70;;;9.75;;
13855;SDS011;6998;53.608;9.958;2022-08-19T12:37:01;10.82;;;9.82;;
13855;SDS011;6998;53.608;9.958;2022-08-19T12:39:29;10.05;;;9.15;;
13855;SDS011;6998;53.608;9.958;2022-08-19T12:41:56;10.98;;;8.93;;
13855;SDS011;6998;53.608;9.958;2022-08-19T12:44:23;11.30;;;10.07;;
13855;SDS011;6998;53.608;9.958;2022-08-19T12:46:50;9.15;;;8.38;;
13855;SDS011;6998;53.608;9.958;2022-08-19T12:49:17;11.05;;;9.95;;
13855;SDS011;6998;53.608;9.958;2022-08-19T12:51:44;9.93;;;9.02;;
13855;SDS011;6998;53.608;9.958;2022-08-19T12:54:12;9.68;;;8.65;;
13855;SDS011;6998;53.608;9.958;2022-08-19T12:56:39;8.75;;;8.05;;
13855;SDS011;6998;53.608;9.958;2022-08-19T12:59:08;8.48;;;7.68;;
13855;SDS011;6998;53.608;9.958;2022-08-19T13:01:36;9.40;;;8.50;;
13855;SDS011;6998;53.608;9.958;2022-08-19T13:04:03;9.98;;;8.98;;
13855;SDS011;6998;53.608;9.958;2022-08-19T13:06:30;8.75;;;7.95;;
13855;SDS011;6998;53.608;9.958;2022-08-19T13:08:57;9.23;;;8.32;;
13855;SDS011;6998;53.608;9.958;2022-08-19T13:11:25;8.45;;;7.65;;
13855;SDS011;6998;53.608;9.958;2022-08-19T13:13:52;9.13;;;7.55;;
13855;SDS011;6998;53.608;9.958;2022-08-19T13:16:19;9.10;;;8.10;;
13855;SDS011;6998;53.608;9.958;2022-08-19T13:18:47;8.45;;;7.75;;
13855;SDS011;6998;53.608;9.958;2022-08-19T13:21:14;8.07;;;7.28;;
13855;SDS011;6998;53.608;9.958;2022-08-19T13:23:41;8.90;;;7.93;;
13855;SDS011;6998;53.608;9.958;2022-08-19T13:26:08;8.70;;;7.90;;
13855;SDS011;6998;53.608;9.958;2022-08-19T13:28:38;8.90;;;8.10;;
13855;SDS011;6998;53.608;9.958;2022-08-19T13:31:24;9.40;;;8.50;;
13855;SDS011;6998;53.608;9.958;2022-08-19T13:34:10;9.30;;;8.40;;
13855;SDS011;6998;53.608;9.958;2022-08-19T13:36:37;9.82;;;8.93;;
13855;SDS011;6998;53.608;9.958;2022-08-19T13:39:05;10.93;;;9.90;;
13855;SDS011;6998;53.608;9.958;2022-08-19T13:41:33;9.45;;;8.65;;
13855;SDS011;6998;53.608;9.958;2022-08-19T13:46:38;8.63;;;7.82;;
13855;SDS011;6998;53.608;9.958;2022-08-19T13:49:04;10.13;;;9.30;;
13855;SDS011;6998;53.608;9.958;2022-08-19T13:51:32;10.15;;;9.05;;
13855;SDS011;6998;53.608;9.958;2022-08-19T13:54:04;9.63;;;8.82;;
13855;SDS011;6998;53.608;9.958;2022-08-19T13:56:34;11.00;;;10.00;;
13855;SDS011;6998;53.608;9.958;2022-08-19T13:59:03;10.80;;;9.10;;
13855;SDS011;6998;53.608;9.958;2022-08-19T14:01:32;10.80;;;9.85;;
13855;SDS011;6998;53.608;9.958;2022-08-19T14:04:01;9.20;;;8.30;;
13855;SDS011;6998;53.608;9.958;2022-08-19T14:06:28;9.82;;;8.82;;
13855;SDS011;6998;53.608;9.958;2022-08-19T14:08:55;10.95;;;10.05;;
13855;SDS011;6998;53.608;9.958;2022-08-19T14:11:21;8.95;;;8.20;;
13855;SDS011;6998;53.608;9.958;2022-08-19T14:13:49;9.30;;;8.50;;
13855;SDS011;6998;53.608;9.958;2022-08-19T14:16:16;10.27;;;9.48;;
13855;SDS011;6998;53.608;9.958;2022-08-19T14:18:43;12.60;;;11.50;;
13855;SDS011;6998;53.608;9.958;2022-08-19T14:21:15;11.52;;;10.52;;
13855;SDS011;6998;53.608;9.958;2022-08-19T14:23:45;10.57;;;9.57;;
13855;SDS011;6998;53.608;9.958;2022-08-19T14:26:13;9.68;;;8.88;;
13855;SDS011;6998;53.608;9.958;2022-08-19T14:28:41;11.90;;;10.80;;
13855;SDS011;6998;53.608;9.958;2022-08-19T14:31:09;11.60;;;10.60;;
13855;SDS011;6998;53.608;9.958;2022-08-19T14:33:36;11.60;;;10.50;;
13855;SDS011;6998;53.608;9.958;2022-08-19T14:36:03;11.55;;;10.50;;
13855;SDS011;6998;53.608;9.958;2022-08-19T14:38:32;11.88;;;10.85;;
13855;SDS011;6998;53.608;9.958;2022-08-19T14:41:06;12.45;;;11.35;;
13855;SDS011;6998;53.608;9.958;2022-08-19T14:43:49;11.40;;;10.40;;
13855;SDS011;6998;53.608;9.958;2022-08-19T14:46:19;11.05;;;10.15;;
13855;SDS011;6998;53.608;9.958;2022-08-19T14:48:48;12.90;;;10.80;;
13855;SDS011;6998;53.608;9.958;2022-08-19T14:51:15;11.85;;;10.65;;